sensor_id;sensor_type;location;lat;lon;timestamp;temperature;humidity
2024;DHT22;1016;48.770;9.154;2023-04-24T00:00:04;13.70;99.90
2024;DHT22;1016;48.770;9.154;2023-04-24T00:02:36;13.70;99.90
2024;DHT22;1016;48.770;9.154;2023-04-24T00:05:04;13.60;99.90
2024;DHT22;1016;48.770;9.154;2023-04-24T00:07:31;13.60;99.90
2024;DHT22;1016;48.770;9.154;2023-04-24T00:09:57;13.60;99.90
2024;DHT22;1016;48.770;9.154;2023-04-24T00:12:22;13.60;99.90
2024;DHT22;1016;48.770;9.154;2023-04-24T00:14:48;13.60;99.90
2024;DHT22;1016;48.770;9.154;2023-04-24T00:17:13;13.60;99.90
2024;DHT22;1016;48.770;9.154;2023-04-24T00:19:39;13.60;99.90
2024;DHT22;1016;48.770;9.154;2023-04-24T00:22:04;13.60;99.90
2024;DHT22;1016;48.770;9.154;2023-04-24T00:24:30;13.60;99.90
2024;DHT22;1016;48.770;9.154;2023-04-24T00:26:56;13.60;99.90
2024;DHT22;1016;48.770;9.154;2023-04-24T00:29:21;13.60;99.90
2024;DHT22;1016;48.770;9.154;2023-04-24T00:31:47;13.60;99.90
2024;DHT22;1016;48.770;9.154;2023-04-24T00:34:13;13.60;99.90
2024;DHT22;1016;48.770;9.154;2023-04-24T00:36:38;13.60;99.90
2024;DHT22;1016;48.770;9.154;2023-04-24T00:39:04;13.60;99.90
2024;DHT22;1016;48.770;9.154;2023-04-24T00:41:30;13.60;99.90
2024;DHT22;1016;48.770;9.154;2023-04-24T00:43:55;13.60;99.90
2024;DHT22;1016;48.770;9.154;2023-04-24T00:46:21;13.60;99.90
2024;DHT22;1016;48.770;9.154;2023-04-24T00:48:47;13.70;99.90
2024;DHT22;1016;48.770;9.154;2023-04-24T00:51:12;13.70;99.90
2024;DHT22;1016;48.770;9.154;2023-04-24T00:53:38;13.90;99.90
2024;DHT22;1016;48.770;9.154;2023-04-24T00:56:04;13.90;99.90
2024;DHT22;1016;48.770;9.154;2023-04-24T00:58:30;14.10;99.90
2024;DHT22;1016;48.770;9.154;2023-04-24T01:00:57;14.20;99.90
2024;DHT22;1016;48.770;9.154;2023-04-24T01:03:29;14.30;99.90
2024;DHT22;1016;48.770;9.154;2023-04-24T01:05:55;14.30;99.90
2024;DHT22;1016;48.770;9.154;2023-04-24T01:08:23;14.40;99.90
2024;DHT22;1016;48.770;9.154;2023-04-24T01:10:51;14.40;99.90
2024;DHT22;1016;48.770;9.154;2023-04-24T01:13:18;14.50;99.90
2024;DHT22;1016;48.770;9.154;2023-04-24T01:15:44;14.50;99.90
2024;DHT22;1016;48.770;9.154;2023-04-24T01:18:10;14.60;99.90
2024;DHT22;1016;48.770;9.154;2023-04-24T01:20:37;14.70;99.90
2024;DHT22;1016;48.770;9.154;2023-04-24T01:23:05;14.70;99.90
2024;DHT22;1016;48.770;9.154;2023-04-24T01:25:31;14.70;99.90
2024;DHT22;1016;48.770;9.154;2023-04-24T01:27:57;14.70;99.90
2024;DHT22;1016;48.770;9.154;2023-04-24T01:30:23;14.80;99.90
2024;DHT22;1016;48.770;9.154;2023-04-24T01:32:49;14.80;99.90
2024;DHT22;1016;48.770;9.154;2023-04-24T01:35:15;14.80;99.90
2024;DHT22;1016;48.770;9.154;2023-04-24T01:37:40;14.80;99.90
2024;DHT22;1016;48.770;9.154;2023-04-24T01:40:07;14.80;99.90
2024;DHT22;1016;48.770;9.154;2023-04-24T01:42:32;14.80;99.90
2024;DHT22;1016;48.770;9.154;2023-04-24T01:44:59;14.80;99.90
2024;DHT22;1016;48.770;9.154;2023-04-24T01:47:25;14.80;99.90
2024;DHT22;1016;48.770;9.154;2023-04-24T01:49:50;14.80;99.90
2024;DHT22;1016;48.770;9.154;2023-04-24T01:52:17;14.80;99.90
2024;DHT22;1016;48.770;9.154;2023-04-24T01:54:44;14.80;99.90
2024;DHT22;1016;48.770;9.154;2023-04-24T01:57:09;14.80;99.90
2024;DHT22;1016;48.770;9.154;2023-04-24T01:59:35;14.80;99.90
2024;DHT22;1016;48.770;9.154;2023-04-24T02:02:02;14.80;99.90
2024;DHT22;1016;48.770;9.154;2023-04-24T02:04:27;14.80;99.90
2024;DHT22;1016;48.770;9.154;2023-04-24T02:06:53;14.80;99.90
2024;DHT22;1016;48.770;9.154;2023-04-24T02:09:19;14.80;99.90
2024;DHT22;1016;48.770;9.154;2023-04-24T02:11:44;14.80;99.90
2024;DHT22;1016;48.770;9.154;2023-04-24T02:14:10;14.80;99.90
2024;DHT22;1016;48.770;9.154;2023-04-24T02:16:35;14.80;99.90
2024;DHT22;1016;48.770;9.154;2023-04-24T02:19:01;14.80;99.90
2024;DHT22;1016;48.770;9.154;2023-04-24T02:21:27;14.80;99.90
2024;DHT22;1016;48.770;9.154;2023-04-24T02:23:53;14.80;99.90
2024;DHT22;1016;48.770;9.154;2023-04-24T02:26:19;14.80;99.90
2024;DHT22;1016;48.770;9.154;2023-04-24T02:28:44;14.80;99.90
2024;DHT22;1016;48.770;9.154;2023-04-24T02:31:10;14.80;99.90
2024;DHT22;1016;48.770;9.154;2023-04-24T02:33:36;14.80;99.90
2024;DHT22;1016;48.770;9.154;2023-04-24T02:36:02;14.80;99.90
2024;DHT22;1016;48.770;9.154;2023-04-24T02:38:28;14.70;99.90
2024;DHT22;1016;48.770;9.154;2023-04-24T02:40:54;14.70;99.90
2024;DHT22;1016;48.770;9.154;2023-04-24T02:43:19;14.70;99.90
2024;DHT22;1016;48.770;9.154;2023-04-24T02:45:45;14.70;99.90
2024;DHT22;1016;48.770;9.154;2023-04-24T02:48:11;14.60;99.90
2024;DHT22;1016;48.770;9.154;2023-04-24T02:50:36;14.60;99.90
2024;DHT22;1016;48.770;9.154;2023-04-24T02:53:02;14.60;99.90
2024;DHT22;1016;48.770;9.154;2023-04-24T02:55:27;14.60;99.90
2024;DHT22;1016;48.770;9.154;2023-04-24T02:57:53;14.60;99.90
2024;DHT22;1016;48.770;9.154;2023-04-24T03:00:18;14.50;99.90
2024;DHT22;1016;48.770;9.154;2023-04-24T03:02:44;14.50;99.90
2024;DHT22;1016;48.770;9.154;2023-04-24T03:05:10;14.60;99.90
2024;DHT22;1016;48.770;9.154;2023-04-24T03:07:37;14.60;99.90
2024;DHT22;1016;48.770;9.154;2023-04-24T03:10:03;14.60;99.90
2024;DHT22;1016;48.770;9.154;2023-04-24T03:12:30;14.60;99.90
2024;DHT22;1016;48.770;9.154;2023-04-24T03:14:55;14.60;99.90
2024;DHT22;1016;48.770;9.154;2023-04-24T03:17:21;14.60;99.90
2024;DHT22;1016;48.770;9.154;2023-04-24T03:19:46;14.50;99.90
2024;DHT22;1016;48.770;9.154;2023-04-24T03:22:12;14.50;99.90
2024;DHT22;1016;48.770;9.154;2023-04-24T03:24:38;14.40;99.90
2024;DHT22;1016;48.770;9.154;2023-04-24T03:27:03;14.30;99.90
2024;DHT22;1016;48.770;9.154;2023-04-24T03:29:29;14.30;99.90
2024;DHT22;1016;48.770;9.154;2023-04-24T03:31:54;14.30;99.90
2024;DHT22;1016;48.770;9.154;2023-04-24T03:34:20;14.20;99.90
2024;DHT22;1016;48.770;9.154;2023-04-24T03:36:45;14.20;99.90
2024;DHT22;1016;48.770;9.154;2023-04-24T03:39:13;14.30;99.90
2024;DHT22;1016;48.770;9.154;2023-04-24T03:41:38;14.30;99.90
2024;DHT22;1016;48.770;9.154;2023-04-24T03:44:04;14.20;99.90
2024;DHT22;1016;48.770;9.154;2023-04-24T03:46:29;14.20;99.90
2024;DHT22;1016;48.770;9.154;2023-04-24T03:48:55;14.20;99.90
2024;DHT22;1016;48.770;9.154;2023-04-24T03:51:20;14.20;99.90
2024;DHT22;1016;48.770;9.154;2023-04-24T03:53:47;14.10;99.90
2024;DHT22;1016;48.770;9.154;2023-04-24T03:56:12;14.10;99.90
2024;DHT22;1016;48.770;9.154;2023-04-24T03:58:38;14.10;99.90
2024;DHT22;1016;48.770;9.154;2023-04-24T04:01:03;14.10;99.90
2024;DHT22;1016;48.770;9.154;2023-04-24T04:03:29;14.20;99.90
2024;DHT22;1016;48.770;9.154;2023-04-24T04:05:55;14.10;99.90
2024;DHT22;1016;48.770;9.154;2023-04-24T04:08:20;14.10;99.90
2024;DHT22;1016;48.770;9.154;2023-04-24T04:10:46;14.20;99.90
2024;DHT22;1016;48.770;9.154;2023-04-24T04:13:11;14.20;99.90
2024;DHT22;1016;48.770;9.154;2023-04-24T04:15:37;14.20;99.90
2024;DHT22;1016;48.770;9.154;2023-04-24T04:18:02;14.20;99.90
2024;DHT22;1016;48.770;9.154;2023-04-24T04:20:28;14.30;99.90
2024;DHT22;1016;48.770;9.154;2023-04-24T04:22:53;14.20;99.90
2024;DHT22;1016;48.770;9.154;2023-04-24T04:25:19;14.20;99.90
2024;DHT22;1016;48.770;9.154;2023-04-24T04:27:45;14.20;99.90
2024;DHT22;1016;48.770;9.154;2023-04-24T04:30:13;14.20;99.90
2024;DHT22;1016;48.770;9.154;2023-04-24T04:32:38;14.10;99.90
2024;DHT22;1016;48.770;9.154;2023-04-24T04:35:04;14.10;99.90
2024;DHT22;1016;48.770;9.154;2023-04-24T04:37:31;14.00;99.90
2024;DHT22;1016;48.770;9.154;2023-04-24T04:39:57;13.90;99.90
2024;DHT22;1016;48.770;9.154;2023-04-24T04:42:23;13.70;99.90
2024;DHT22;1016;48.770;9.154;2023-04-24T04:44:49;13.50;99.90
2024;DHT22;1016;48.770;9.154;2023-04-24T04:47:16;13.50;99.90
2024;DHT22;1016;48.770;9.154;2023-04-24T04:49:42;13.40;99.90
2024;DHT22;1016;48.770;9.154;2023-04-24T04:52:08;13.40;99.90
2024;DHT22;1016;48.770;9.154;2023-04-24T04:54:34;13.40;99.90
2024;DHT22;1016;48.770;9.154;2023-04-24T04:56:59;13.20;99.90
2024;DHT22;1016;48.770;9.154;2023-04-24T04:59:26;13.40;99.90
2024;DHT22;1016;48.770;9.154;2023-04-24T05:01:52;13.40;99.90
2024;DHT22;1016;48.770;9.154;2023-04-24T05:04:17;13.40;99.90
2024;DHT22;1016;48.770;9.154;2023-04-24T05:06:43;13.40;99.90
2024;DHT22;1016;48.770;9.154;2023-04-24T05:09:09;13.30;99.90
2024;DHT22;1016;48.770;9.154;2023-04-24T05:11:34;13.30;99.90
2024;DHT22;1016;48.770;9.154;2023-04-24T05:14:00;13.40;99.90
2024;DHT22;1016;48.770;9.154;2023-04-24T05:16:26;13.40;99.90
2024;DHT22;1016;48.770;9.154;2023-04-24T05:18:52;13.40;99.90
2024;DHT22;1016;48.770;9.154;2023-04-24T05:21:18;13.40;99.90
2024;DHT22;1016;48.770;9.154;2023-04-24T05:23:43;13.30;99.90
2024;DHT22;1016;48.770;9.154;2023-04-24T05:26:08;13.40;99.90
2024;DHT22;1016;48.770;9.154;2023-04-24T05:28:34;13.40;99.90
2024;DHT22;1016;48.770;9.154;2023-04-24T05:31:02;13.30;99.90
2024;DHT22;1016;48.770;9.154;2023-04-24T05:33:27;13.40;99.90
2024;DHT22;1016;48.770;9.154;2023-04-24T05:35:53;13.40;99.90
2024;DHT22;1016;48.770;9.154;2023-04-24T05:38:19;13.40;99.90
2024;DHT22;1016;48.770;9.154;2023-04-24T05:40:45;13.40;99.90
2024;DHT22;1016;48.770;9.154;2023-04-24T05:43:11;13.40;99.90
2024;DHT22;1016;48.770;9.154;2023-04-24T05:45:37;13.50;99.90
2024;DHT22;1016;48.770;9.154;2023-04-24T05:48:03;13.50;99.90
2024;DHT22;1016;48.770;9.154;2023-04-24T05:50:29;13.50;99.90
2024;DHT22;1016;48.770;9.154;2023-04-24T05:52:54;13.50;99.90
2024;DHT22;1016;48.770;9.154;2023-04-24T05:55:20;13.40;99.90
2024;DHT22;1016;48.770;9.154;2023-04-24T05:57:46;13.40;99.90
2024;DHT22;1016;48.770;9.154;2023-04-24T06:00:12;13.40;99.90
2024;DHT22;1016;48.770;9.154;2023-04-24T06:02:38;13.50;99.90
2024;DHT22;1016;48.770;9.154;2023-04-24T06:05:04;13.40;99.90
2024;DHT22;1016;48.770;9.154;2023-04-24T06:07:30;13.40;99.90
2024;DHT22;1016;48.770;9.154;2023-04-24T06:09:56;13.40;99.90
2024;DHT22;1016;48.770;9.154;2023-04-24T06:12:22;13.40;99.90
2024;DHT22;1016;48.770;9.154;2023-04-24T06:14:48;13.50;99.90
2024;DHT22;1016;48.770;9.154;2023-04-24T06:17:14;13.50;99.90
2024;DHT22;1016;48.770;9.154;2023-04-24T06:19:39;13.40;99.90
2024;DHT22;1016;48.770;9.154;2023-04-24T06:22:05;13.50;99.90
2024;DHT22;1016;48.770;9.154;2023-04-24T06:24:31;13.50;99.90
2024;DHT22;1016;48.770;9.154;2023-04-24T06:26:56;13.50;99.90
2024;DHT22;1016;48.770;9.154;2023-04-24T06:29:24;13.50;99.90
2024;DHT22;1016;48.770;9.154;2023-04-24T06:31:49;13.60;99.90
2024;DHT22;1016;48.770;9.154;2023-04-24T06:34:15;13.70;99.90
2024;DHT22;1016;48.770;9.154;2023-04-24T06:36:41;13.80;99.90
2024;DHT22;1016;48.770;9.154;2023-04-24T06:39:06;13.90;99.90
2024;DHT22;1016;48.770;9.154;2023-04-24T06:41:32;13.90;99.90
2024;DHT22;1016;48.770;9.154;2023-04-24T06:43:57;13.90;99.90
2024;DHT22;1016;48.770;9.154;2023-04-24T06:46:23;14.00;99.90
2024;DHT22;1016;48.770;9.154;2023-04-24T06:48:52;14.00;99.90
2024;DHT22;1016;48.770;9.154;2023-04-24T06:51:17;14.20;99.90
2024;DHT22;1016;48.770;9.154;2023-04-24T06:53:43;14.20;99.90
2024;DHT22;1016;48.770;9.154;2023-04-24T06:56:09;14.30;99.90
2024;DHT22;1016;48.770;9.154;2023-04-24T06:58:34;14.40;99.90
2024;DHT22;1016;48.770;9.154;2023-04-24T07:01:00;14.40;99.90
2024;DHT22;1016;48.770;9.154;2023-04-24T07:03:25;14.40;99.90
2024;DHT22;1016;48.770;9.154;2023-04-24T07:05:51;14.40;99.90
2024;DHT22;1016;48.770;9.154;2023-04-24T07:08:17;14.50;99.90
2024;DHT22;1016;48.770;9.154;2023-04-24T07:10:44;14.50;99.90
2024;DHT22;1016;48.770;9.154;2023-04-24T07:13:10;14.50;99.90
2024;DHT22;1016;48.770;9.154;2023-04-24T07:15:35;14.60;99.90
2024;DHT22;1016;48.770;9.154;2023-04-24T07:18:01;14.50;99.90
2024;DHT22;1016;48.770;9.154;2023-04-24T07:20:26;14.60;99.90
2024;DHT22;1016;48.770;9.154;2023-04-24T07:22:52;14.70;99.90
2024;DHT22;1016;48.770;9.154;2023-04-24T07:25:19;14.50;99.90
2024;DHT22;1016;48.770;9.154;2023-04-24T07:27:44;14.40;99.90
2024;DHT22;1016;48.770;9.154;2023-04-24T07:30:10;14.40;99.90
2024;DHT22;1016;48.770;9.154;2023-04-24T07:32:36;14.30;99.90
2024;DHT22;1016;48.770;9.154;2023-04-24T07:35:11;14.20;99.90
2024;DHT22;1016;48.770;9.154;2023-04-24T07:40:49;14.40;99.90
2024;DHT22;1016;48.770;9.154;2023-04-24T07:43:21;14.80;99.90
2024;DHT22;1016;48.770;9.154;2023-04-24T07:45:47;14.60;99.90
2024;DHT22;1016;48.770;9.154;2023-04-24T07:48:16;14.60;99.90
2024;DHT22;1016;48.770;9.154;2023-04-24T07:50:43;14.70;99.90
2024;DHT22;1016;48.770;9.154;2023-04-24T07:53:09;14.70;99.90
2024;DHT22;1016;48.770;9.154;2023-04-24T07:55:34;14.70;99.90
2024;DHT22;1016;48.770;9.154;2023-04-24T07:58:00;14.60;99.90
2024;DHT22;1016;48.770;9.154;2023-04-24T08:00:25;14.50;99.90
2024;DHT22;1016;48.770;9.154;2023-04-24T08:02:51;14.30;99.90
2024;DHT22;1016;48.770;9.154;2023-04-24T08:05:16;14.10;99.90
2024;DHT22;1016;48.770;9.154;2023-04-24T08:07:42;14.10;99.90
2024;DHT22;1016;48.770;9.154;2023-04-24T08:10:10;14.00;99.90
2024;DHT22;1016;48.770;9.154;2023-04-24T08:12:37;14.00;99.90
2024;DHT22;1016;48.770;9.154;2023-04-24T08:15:03;14.10;99.90
2024;DHT22;1016;48.770;9.154;2023-04-24T08:17:29;14.00;99.90
2024;DHT22;1016;48.770;9.154;2023-04-24T08:19:55;13.90;99.90
2024;DHT22;1016;48.770;9.154;2023-04-24T08:22:27;13.90;99.90
2024;DHT22;1016;48.770;9.154;2023-04-24T08:24:52;13.90;99.90
2024;DHT22;1016;48.770;9.154;2023-04-24T08:27:19;14.00;99.90
2024;DHT22;1016;48.770;9.154;2023-04-24T08:29:44;14.00;99.90
2024;DHT22;1016;48.770;9.154;2023-04-24T08:32:10;14.00;99.90
2024;DHT22;1016;48.770;9.154;2023-04-24T08:34:35;14.00;99.90
2024;DHT22;1016;48.770;9.154;2023-04-24T08:37:01;14.00;99.90
2024;DHT22;1016;48.770;9.154;2023-04-24T08:39:27;14.00;99.90
2024;DHT22;1016;48.770;9.154;2023-04-24T08:41:53;14.10;99.90
2024;DHT22;1016;48.770;9.154;2023-04-24T08:44:19;14.20;99.90
2024;DHT22;1016;48.770;9.154;2023-04-24T08:46:45;14.10;99.90
2024;DHT22;1016;48.770;9.154;2023-04-24T08:49:13;14.00;99.90
2024;DHT22;1016;48.770;9.154;2023-04-24T08:51:41;14.00;99.90
2024;DHT22;1016;48.770;9.154;2023-04-24T08:54:08;13.70;99.90
2024;DHT22;1016;48.770;9.154;2023-04-24T08:56:34;13.90;99.90
2024;DHT22;1016;48.770;9.154;2023-04-24T08:59:03;13.90;99.90
2024;DHT22;1016;48.770;9.154;2023-04-24T09:01:32;13.90;99.90
2024;DHT22;1016;48.770;9.154;2023-04-24T09:04:03;14.00;99.90
2024;DHT22;1016;48.770;9.154;2023-04-24T09:06:30;13.90;99.90
2024;DHT22;1016;48.770;9.154;2023-04-24T09:09:02;13.80;99.90
2024;DHT22;1016;48.770;9.154;2023-04-24T09:11:30;13.90;99.90
2024;DHT22;1016;48.770;9.154;2023-04-24T09:13:56;13.90;99.90
2024;DHT22;1016;48.770;9.154;2023-04-24T09:16:22;13.80;99.90
2024;DHT22;1016;48.770;9.154;2023-04-24T09:18:49;13.90;99.90
2024;DHT22;1016;48.770;9.154;2023-04-24T09:21:15;13.90;99.90
2024;DHT22;1016;48.770;9.154;2023-04-24T09:23:41;13.70;99.90
2024;DHT22;1016;48.770;9.154;2023-04-24T09:26:09;13.40;99.90
2024;DHT22;1016;48.770;9.154;2023-04-24T09:31:13;13.20;99.90
2024;DHT22;1016;48.770;9.154;2023-04-24T09:36:06;13.30;99.90
2024;DHT22;1016;48.770;9.154;2023-04-24T09:43:29;13.60;99.90
2024;DHT22;1016;48.770;9.154;2023-04-24T09:45:59;13.70;99.90
2024;DHT22;1016;48.770;9.154;2023-04-24T09:48:35;13.70;99.90
2024;DHT22;1016;48.770;9.154;2023-04-24T09:51:03;13.70;99.90
2024;DHT22;1016;48.770;9.154;2023-04-24T09:53:30;13.70;99.90
2024;DHT22;1016;48.770;9.154;2023-04-24T09:55:56;13.80;99.90
2024;DHT22;1016;48.770;9.154;2023-04-24T09:58:25;13.90;99.90
2024;DHT22;1016;48.770;9.154;2023-04-24T10:00:55;13.90;99.90
2024;DHT22;1016;48.770;9.154;2023-04-24T10:03:24;13.90;99.90
2024;DHT22;1016;48.770;9.154;2023-04-24T10:05:51;13.80;99.90
2024;DHT22;1016;48.770;9.154;2023-04-24T10:08:17;13.90;99.90
2024;DHT22;1016;48.770;9.154;2023-04-24T10:10:44;13.90;99.90
2024;DHT22;1016;48.770;9.154;2023-04-24T10:13:11;14.00;99.90
2024;DHT22;1016;48.770;9.154;2023-04-24T10:15:39;14.10;99.90
2024;DHT22;1016;48.770;9.154;2023-04-24T10:18:06;14.10;99.90
2024;DHT22;1016;48.770;9.154;2023-04-24T10:20:32;14.10;99.90
2024;DHT22;1016;48.770;9.154;2023-04-24T10:22:59;14.20;99.90
2024;DHT22;1016;48.770;9.154;2023-04-24T10:25:33;14.30;99.90
2024;DHT22;1016;48.770;9.154;2023-04-24T10:28:00;14.30;99.20
2024;DHT22;1016;48.770;9.154;2023-04-24T10:30:32;14.50;99.20
2024;DHT22;1016;48.770;9.154;2023-04-24T10:33:01;14.50;98.30
2024;DHT22;1016;48.770;9.154;2023-04-24T10:35:30;14.50;97.10
2024;DHT22;1016;48.770;9.154;2023-04-24T10:40:30;14.50;98.00
2024;DHT22;1016;48.770;9.154;2023-04-24T10:42:56;14.60;97.60
2024;DHT22;1016;48.770;9.154;2023-04-24T10:45:23;14.60;97.80
2024;DHT22;1016;48.770;9.154;2023-04-24T10:48:12;14.50;97.40
2024;DHT22;1016;48.770;9.154;2023-04-24T10:50:47;14.40;97.60
2024;DHT22;1016;48.770;9.154;2023-04-24T10:53:17;14.40;98.30
2024;DHT22;1016;48.770;9.154;2023-04-24T10:55:47;14.50;98.30
2024;DHT22;1016;48.770;9.154;2023-04-24T10:58:13;14.50;98.40
2024;DHT22;1016;48.770;9.154;2023-04-24T11:00:40;14.60;98.30
2024;DHT22;1016;48.770;9.154;2023-04-24T11:03:22;14.60;98.40
2024;DHT22;1016;48.770;9.154;2023-04-24T11:05:50;14.60;98.30
2024;DHT22;1016;48.770;9.154;2023-04-24T11:11:03;14.60;98.40
2024;DHT22;1016;48.770;9.154;2023-04-24T11:16:33;14.60;98.10
2024;DHT22;1016;48.770;9.154;2023-04-24T11:19:03;14.60;97.80
2024;DHT22;1016;48.770;9.154;2023-04-24T11:21:42;14.50;97.40
2024;DHT22;1016;48.770;9.154;2023-04-24T11:26:57;14.40;97.10
2024;DHT22;1016;48.770;9.154;2023-04-24T11:32:24;14.40;97.50
2024;DHT22;1016;48.770;9.154;2023-04-24T11:34:52;14.50;97.70
2024;DHT22;1016;48.770;9.154;2023-04-24T11:37:18;14.70;98.00
2024;DHT22;1016;48.770;9.154;2023-04-24T11:39:44;14.80;97.00
2024;DHT22;1016;48.770;9.154;2023-04-24T11:42:14;14.90;97.30
2024;DHT22;1016;48.770;9.154;2023-04-24T11:44:41;14.90;96.50
2024;DHT22;1016;48.770;9.154;2023-04-24T11:47:08;14.60;96.70
2024;DHT22;1016;48.770;9.154;2023-04-24T11:49:34;14.50;96.80
2024;DHT22;1016;48.770;9.154;2023-04-24T11:52:01;14.50;97.20
2024;DHT22;1016;48.770;9.154;2023-04-24T11:54:27;14.50;96.70
2024;DHT22;1016;48.770;9.154;2023-04-24T11:56:52;14.40;97.30
2024;DHT22;1016;48.770;9.154;2023-04-24T11:59:18;14.50;98.80
2024;DHT22;1016;48.770;9.154;2023-04-24T12:01:45;14.50;99.30
2024;DHT22;1016;48.770;9.154;2023-04-24T12:04:10;14.60;99.50
2024;DHT22;1016;48.770;9.154;2023-04-24T12:06:36;14.70;99.30
2024;DHT22;1016;48.770;9.154;2023-04-24T12:09:02;14.80;98.60
2024;DHT22;1016;48.770;9.154;2023-04-24T12:11:27;14.90;97.90
2024;DHT22;1016;48.770;9.154;2023-04-24T12:13:53;14.90;98.00
2024;DHT22;1016;48.770;9.154;2023-04-24T12:16:19;14.90;97.90
2024;DHT22;1016;48.770;9.154;2023-04-24T12:18:45;15.00;97.50
2024;DHT22;1016;48.770;9.154;2023-04-24T12:21:15;14.90;97.00
2024;DHT22;1016;48.770;9.154;2023-04-24T12:23:46;14.90;96.70
2024;DHT22;1016;48.770;9.154;2023-04-24T12:26:18;14.80;96.80
2024;DHT22;1016;48.770;9.154;2023-04-24T12:28:47;14.80;96.70
2024;DHT22;1016;48.770;9.154;2023-04-24T12:31:13;14.80;96.80
2024;DHT22;1016;48.770;9.154;2023-04-24T12:33:39;15.00;96.20
2024;DHT22;1016;48.770;9.154;2023-04-24T12:36:04;14.90;96.00
2024;DHT22;1016;48.770;9.154;2023-04-24T12:38:31;14.90;95.60
2024;DHT22;1016;48.770;9.154;2023-04-24T12:41:14;15.00;95.60
2024;DHT22;1016;48.770;9.154;2023-04-24T12:43:54;15.10;96.30
2024;DHT22;1016;48.770;9.154;2023-04-24T12:46:20;15.30;96.70
2024;DHT22;1016;48.770;9.154;2023-04-24T12:48:46;15.40;96.00
2024;DHT22;1016;48.770;9.154;2023-04-24T12:51:11;15.20;96.20
2024;DHT22;1016;48.770;9.154;2023-04-24T12:53:37;15.10;95.70
2024;DHT22;1016;48.770;9.154;2023-04-24T12:56:03;15.10;95.70
2024;DHT22;1016;48.770;9.154;2023-04-24T12:58:28;15.00;96.20
2024;DHT22;1016;48.770;9.154;2023-04-24T13:00:54;15.00;96.90
2024;DHT22;1016;48.770;9.154;2023-04-24T13:03:19;15.00;97.60
2024;DHT22;1016;48.770;9.154;2023-04-24T13:05:45;15.00;98.30
2024;DHT22;1016;48.770;9.154;2023-04-24T13:08:11;14.90;98.70
2024;DHT22;1016;48.770;9.154;2023-04-24T13:10:38;14.70;99.60
2024;DHT22;1016;48.770;9.154;2023-04-24T13:13:04;14.70;99.90
2024;DHT22;1016;48.770;9.154;2023-04-24T13:15:29;14.70;99.90
2024;DHT22;1016;48.770;9.154;2023-04-24T13:17:55;14.70;99.90
2024;DHT22;1016;48.770;9.154;2023-04-24T13:20:21;14.80;99.90
2024;DHT22;1016;48.770;9.154;2023-04-24T13:22:47;14.70;99.90
2024;DHT22;1016;48.770;9.154;2023-04-24T13:25:12;14.80;99.90
2024;DHT22;1016;48.770;9.154;2023-04-24T13:27:39;15.10;99.90
2024;DHT22;1016;48.770;9.154;2023-04-24T13:30:05;15.20;99.90
2024;DHT22;1016;48.770;9.154;2023-04-24T13:32:32;15.10;99.90
2024;DHT22;1016;48.770;9.154;2023-04-24T13:34:58;15.00;99.90
2024;DHT22;1016;48.770;9.154;2023-04-24T13:37:27;14.80;99.90
2024;DHT22;1016;48.770;9.154;2023-04-24T13:39:52;14.70;99.90
2024;DHT22;1016;48.770;9.154;2023-04-24T13:42:19;14.60;99.90
2024;DHT22;1016;48.770;9.154;2023-04-24T13:44:45;14.50;99.90
2024;DHT22;1016;48.770;9.154;2023-04-24T13:47:10;14.50;99.90
2024;DHT22;1016;48.770;9.154;2023-04-24T13:49:36;14.40;99.90
2024;DHT22;1016;48.770;9.154;2023-04-24T13:52:02;14.40;99.90
2024;DHT22;1016;48.770;9.154;2023-04-24T13:54:28;14.20;99.90
2024;DHT22;1016;48.770;9.154;2023-04-24T13:56:55;14.10;99.90
2024;DHT22;1016;48.770;9.154;2023-04-24T13:59:21;14.00;99.90
2024;DHT22;1016;48.770;9.154;2023-04-24T14:01:47;14.00;99.90
2024;DHT22;1016;48.770;9.154;2023-04-24T14:04:13;14.50;99.90
2024;DHT22;1016;48.770;9.154;2023-04-24T14:06:38;16.90;99.90
2024;DHT22;1016;48.770;9.154;2023-04-24T14:09:04;18.50;99.90
2024;DHT22;1016;48.770;9.154;2023-04-24T14:11:29;17.60;99.90
2024;DHT22;1016;48.770;9.154;2023-04-24T14:13:55;16.70;99.90
2024;DHT22;1016;48.770;9.154;2023-04-24T14:16:25;16.60;99.90
2024;DHT22;1016;48.770;9.154;2023-04-24T14:18:50;16.60;99.90
2024;DHT22;1016;48.770;9.154;2023-04-24T14:21:16;16.90;99.90
2024;DHT22;1016;48.770;9.154;2023-04-24T14:23:42;18.30;99.90
2024;DHT22;1016;48.770;9.154;2023-04-24T14:26:07;18.80;99.90
2024;DHT22;1016;48.770;9.154;2023-04-24T14:28:33;18.40;99.90
2024;DHT22;1016;48.770;9.154;2023-04-24T14:30:58;18.00;99.90
2024;DHT22;1016;48.770;9.154;2023-04-24T14:33:24;20.70;99.90
2024;DHT22;1016;48.770;9.154;2023-04-24T14:38:24;22.10;97.60
2024;DHT22;1016;48.770;9.154;2023-04-24T14:40:50;22.00;91.90
2024;DHT22;1016;48.770;9.154;2023-04-24T14:43:15;21.80;92.50
2024;DHT22;1016;48.770;9.154;2023-04-24T14:45:41;21.00;91.00
2024;DHT22;1016;48.770;9.154;2023-04-24T14:48:07;19.80;91.40
2024;DHT22;1016;48.770;9.154;2023-04-24T14:50:36;18.00;92.30
2024;DHT22;1016;48.770;9.154;2023-04-24T14:57:54;16.70;99.90
2024;DHT22;1016;48.770;9.154;2023-04-24T15:00:20;16.60;99.90
2024;DHT22;1016;48.770;9.154;2023-04-24T15:02:48;16.80;99.90
2024;DHT22;1016;48.770;9.154;2023-04-24T15:05:14;16.50;99.90
2024;DHT22;1016;48.770;9.154;2023-04-24T15:07:39;16.50;99.90
2024;DHT22;1016;48.770;9.154;2023-04-24T15:10:07;16.00;99.90
2024;DHT22;1016;48.770;9.154;2023-04-24T15:15:02;15.70;96.40
2024;DHT22;1016;48.770;9.154;2023-04-24T15:17:27;15.20;96.80
2024;DHT22;1016;48.770;9.154;2023-04-24T15:19:53;14.90;99.90
2024;DHT22;1016;48.770;9.154;2023-04-24T15:22:21;14.50;98.00
2024;DHT22;1016;48.770;9.154;2023-04-24T15:24:46;14.50;98.30
2024;DHT22;1016;48.770;9.154;2023-04-24T15:27:12;14.30;98.90
2024;DHT22;1016;48.770;9.154;2023-04-24T15:29:38;14.20;99.50
2024;DHT22;1016;48.770;9.154;2023-04-24T15:32:03;14.20;99.90
2024;DHT22;1016;48.770;9.154;2023-04-24T15:34:29;14.20;99.90
2024;DHT22;1016;48.770;9.154;2023-04-24T15:39:22;13.90;99.90
2024;DHT22;1016;48.770;9.154;2023-04-24T15:41:52;13.80;99.90
2024;DHT22;1016;48.770;9.154;2023-04-24T15:44:18;13.70;99.90
2024;DHT22;1016;48.770;9.154;2023-04-24T15:49:10;13.30;99.90
2024;DHT22;1016;48.770;9.154;2023-04-24T15:58:53;13.30;99.90
2024;DHT22;1016;48.770;9.154;2023-04-24T16:01:19;13.30;99.90
2024;DHT22;1016;48.770;9.154;2023-04-24T16:03:45;13.40;99.90
2024;DHT22;1016;48.770;9.154;2023-04-24T16:06:11;13.40;99.90
2024;DHT22;1016;48.770;9.154;2023-04-24T16:08:37;13.40;99.90
2024;DHT22;1016;48.770;9.154;2023-04-24T16:11:03;13.40;99.90
2024;DHT22;1016;48.770;9.154;2023-04-24T16:13:28;13.40;99.90
2024;DHT22;1016;48.770;9.154;2023-04-24T16:15:56;13.40;99.90
2024;DHT22;1016;48.770;9.154;2023-04-24T16:18:21;13.50;99.90
2024;DHT22;1016;48.770;9.154;2023-04-24T16:20:47;13.50;99.90
2024;DHT22;1016;48.770;9.154;2023-04-24T16:23:12;13.40;99.90
2024;DHT22;1016;48.770;9.154;2023-04-24T16:25:39;13.40;99.90
2024;DHT22;1016;48.770;9.154;2023-04-24T16:28:05;13.30;99.90
2024;DHT22;1016;48.770;9.154;2023-04-24T16:30:30;13.30;99.90
2024;DHT22;1016;48.770;9.154;2023-04-24T16:32:56;13.20;99.90
2024;DHT22;1016;48.770;9.154;2023-04-24T16:35:21;13.30;99.90
2024;DHT22;1016;48.770;9.154;2023-04-24T17:11:51;13.70;99.90
2024;DHT22;1016;48.770;9.154;2023-04-24T17:14:16;13.60;99.90
2024;DHT22;1016;48.770;9.154;2023-04-24T17:16:42;13.60;99.90
2024;DHT22;1016;48.770;9.154;2023-04-24T17:19:10;13.40;99.90